Aeroporto :
LOGIN :

Iscrizione | Disclaimer

   EN    FR    IT 

 










Sommario :    VFR   VFR Marginale   IFR   IFR Intensivo   IFR Molto Intensivo
Visibilità : 
Base nubi : 
>= 8 km
>= 3000ft
5 / 8 km
1000 / 3000 ft
1500m / 5 km
500 / 1000 ft
800 / 1500m
200 / 500 ft
< 800m
< 200 ft
Simboli :   Temporali  Nebbia  Neve Forte  Precipitazioni Forti  Vento > 20 kt
SIGMETs :   Varie  Temporali  Ghiacco  Turbolenza  Onda orograficha  Ceneri Vulcaniche






- Altitudine del aeroporto : 160 ft
- Codice IATA : LRT


LFRH - Lorient Lann Bihoue

ULTIMO METAR :
  • 150930Z AUTO 24009KT 9999 BKN008 BKN013 BKN110 20/18 Q1006 BECMG SCT012

METARs OBSOLETI :
  • 150900Z AUTO 24008KT 8000 BKN006 OVC110 20/18 Q1006 BECMG BKN012
  • 150830Z AUTO 24008KT 6000 BKN005 OVC014 19/18 Q1006 BECMG BKN012
  • 150800Z AUTO 24009KT 4500 BR BKN005 BKN009 OVC014 18/18 Q1006 BECMG 8000 NSW BKN012
  • 150730Z AUTO 23008KT 3500 BR OVC004 18/17 Q1006 BECMG 8000 NSW BKN012
  • 150700Z AUTO 25009KT 4000 BR BKN005 OVC013 18/17 Q1006 BECMG 7000 NSW BKN012

TAF AMD TAF LFRH
Valido dal 15 a 07 ore il 16 a 06 ore UTC


150703Z 1507/1606 26010KT 4000 BR OVC005
BECMG 1509/1511 8000 NSW BKN012
BECMG 1511/1513 SCT012
TEMPO 1522/1606 SCT014TCU BKN018 BKN100
PROB40
TEMPO 1523/1606 VRB15G30KT 3000 TSRA SCT013CB BKN020



MetMap, La meteo Aeronautica in un colpo d'occhio ! - Copyright ORBIFLY Dicembre 2007 - Disclaimer

ORBIFLY MET'MAP TEAM :

Programmazione e sviluppo : Alexandra Zaïnal
Concezione : Baudouin d'Aumeries
Supporto tecnico e logistico : Manuel Goepfert
Aiuto : Marc-Olivier Méhu
Aiuto per la traduzione : Arnaldo La Scala




FONTI E CREDITI :

   NOAA